createdAt,value
2018-11-06T00:01:55.157Z,35.93
2018-11-06T00:04:29.097Z,33.10
2018-11-06T00:06:58.017Z,33.50
2018-11-06T00:09:26.714Z,33.67
2018-11-06T00:11:55.334Z,34.27
2018-11-06T00:14:23.981Z,34.07
2018-11-06T00:16:52.558Z,32.47
2018-11-06T00:19:21.570Z,31.10
2018-11-06T00:21:50.185Z,30.47
2018-11-06T00:24:18.861Z,30.30
2018-11-06T00:26:47.505Z,30.00
2018-11-06T00:29:16.124Z,28.40
2018-11-06T00:31:44.833Z,30.97
2018-11-06T00:34:13.534Z,30.77
2018-11-06T00:36:42.107Z,30.13
2018-11-06T00:39:11.051Z,29.10
2018-11-06T00:41:39.850Z,29.70
2018-11-06T00:44:08.692Z,27.37
2018-11-06T00:46:37.712Z,27.40
2018-11-06T00:49:06.516Z,27.03
2018-11-06T00:51:35.181Z,27.27
2018-11-06T00:54:03.837Z,28.67
2018-11-06T00:56:32.514Z,27.47
2018-11-06T00:59:01.181Z,26.90
2018-11-06T01:01:29.827Z,27.77
2018-11-06T01:04:03.773Z,28.07
2018-11-06T01:06:32.433Z,26.87
2018-11-06T01:09:01.073Z,27.33
2018-11-06T01:11:29.666Z,29.70
2018-11-06T01:13:58.306Z,29.17
2018-11-06T01:16:26.924Z,28.07
2018-11-06T01:18:55.591Z,29.17
2018-11-06T01:21:24.264Z,28.77
2018-11-06T01:23:52.863Z,27.70
2018-11-06T01:26:21.599Z,27.47
2018-11-06T01:28:50.250Z,27.37
2018-11-06T01:31:18.922Z,26.50
2018-11-06T01:33:47.562Z,27.67
2018-11-06T01:36:16.142Z,27.33
2018-11-06T01:38:44.773Z,28.90
2018-11-06T01:41:13.392Z,28.07
2018-11-06T01:43:42.058Z,28.30
2018-11-06T01:46:10.668Z,27.53
2018-11-06T01:48:39.317Z,27.27
2018-11-06T01:51:07.929Z,27.63
2018-11-06T01:53:36.532Z,28.33
2018-11-06T01:56:05.173Z,28.23
2018-11-06T01:58:33.796Z,27.97
2018-11-06T02:01:02.459Z,26.77
2018-11-06T02:03:31.057Z,28.20
2018-11-06T02:05:59.734Z,28.67
2018-11-06T02:08:28.368Z,27.07
2018-11-06T02:10:57.046Z,28.10
2018-11-06T02:13:25.697Z,26.87
2018-11-06T02:15:54.342Z,27.97
2018-11-06T02:18:22.973Z,27.33
2018-11-06T02:20:51.598Z,27.67
2018-11-06T02:23:20.240Z,27.57
2018-11-06T02:25:48.871Z,26.43
2018-11-06T02:28:17.485Z,27.17
2018-11-06T02:30:46.094Z,25.47
2018-11-06T02:33:14.753Z,26.87
2018-11-06T02:35:43.423Z,26.37
2018-11-06T02:38:12.141Z,28.17
2018-11-06T02:40:40.765Z,28.00
2018-11-06T02:43:09.420Z,28.27
2018-11-06T02:45:38.061Z,26.63
2018-11-06T02:48:07.127Z,28.43
2018-11-06T02:50:35.768Z,29.40
2018-11-06T02:53:10.980Z,27.50
2018-11-06T02:55:39.683Z,27.30
2018-11-06T02:58:08.269Z,27.00
2018-11-06T03:00:36.905Z,27.63
2018-11-06T03:03:05.974Z,27.07
2018-11-06T03:05:34.593Z,27.77
2018-11-06T03:08:03.221Z,26.13
2018-11-06T03:10:31.997Z,25.90
2018-11-06T03:13:00.538Z,25.83
2018-11-06T03:15:29.202Z,26.37
2018-11-06T03:17:57.859Z,24.80
2018-11-06T03:20:26.505Z,23.37
2018-11-06T03:22:55.144Z,23.77
2018-11-06T03:25:23.761Z,22.83
2018-11-06T03:27:52.385Z,22.67
2018-11-06T03:30:21.044Z,22.17
2018-11-06T03:32:49.695Z,24.07
2018-11-06T03:35:18.357Z,22.53
2018-11-06T03:37:46.966Z,20.70
2018-11-06T03:40:15.582Z,20.60
2018-11-06T03:42:44.549Z,20.27
2018-11-06T03:45:13.897Z,20.93
2018-11-06T03:47:42.511Z,20.00
2018-11-06T03:50:12.491Z,18.57
2018-11-06T03:52:41.187Z,18.97
2018-11-06T03:55:10.035Z,19.10
2018-11-06T03:57:38.651Z,19.13
2018-11-06T04:00:15.329Z,18.03
2018-11-06T04:02:44.486Z,17.57
2018-11-06T04:05:13.473Z,17.13
2018-11-06T04:07:42.117Z,16.33
2018-11-06T04:10:11.784Z,18.93
2018-11-06T04:12:41.112Z,17.57
2018-11-06T04:15:10.353Z,17.17
2018-11-06T04:17:38.950Z,18.13
2018-11-06T04:20:07.978Z,18.07
2018-11-06T04:22:36.633Z,18.07
2018-11-06T04:25:05.848Z,18.30
2018-11-06T04:27:34.536Z,18.17
2018-11-06T04:30:10.319Z,19.27
2018-11-06T04:32:39.038Z,17.93
2018-11-06T04:35:07.890Z,19.50
2018-11-06T04:37:36.571Z,18.27
2018-11-06T04:40:06.052Z,18.63
2018-11-06T04:42:34.683Z,18.63
2018-11-06T04:45:03.336Z,19.30
2018-11-06T04:47:32.027Z,19.37
2018-11-06T04:50:00.649Z,23.23
2018-11-06T04:52:29.275Z,22.50
2018-11-06T04:54:57.944Z,22.50
2018-11-06T04:57:26.513Z,21.00
2018-11-06T04:59:55.143Z,22.90
2018-11-06T05:02:23.786Z,21.73
2018-11-06T05:04:52.414Z,20.87
2018-11-06T05:07:21.940Z,20.00
2018-11-06T05:09:50.579Z,20.33
2018-11-06T05:12:19.245Z,21.97
2018-11-06T05:14:47.898Z,20.50
2018-11-06T05:17:16.532Z,19.70
2018-11-06T05:19:45.138Z,20.00
2018-11-06T05:22:13.749Z,20.07
2018-11-06T05:24:42.416Z,21.00
2018-11-06T05:27:11.212Z,20.43
2018-11-06T05:29:39.852Z,20.87
2018-11-06T05:32:08.488Z,20.60
2018-11-06T05:34:37.478Z,18.97
2018-11-06T05:37:06.131Z,21.53
2018-11-06T05:39:34.940Z,22.33
2018-11-06T05:42:03.527Z,21.70
2018-11-06T05:44:32.218Z,21.53
2018-11-06T05:47:00.862Z,22.27
2018-11-06T05:49:29.447Z,21.90
2018-11-06T05:51:58.042Z,23.37
2018-11-06T05:54:26.659Z,22.50
2018-11-06T05:56:55.278Z,23.57
2018-11-06T05:59:23.938Z,24.07
2018-11-06T06:01:52.570Z,26.03
2018-11-06T06:04:21.210Z,26.00
2018-11-06T06:06:49.930Z,30.23
2018-11-06T06:09:18.580Z,29.67
2018-11-06T06:11:47.265Z,26.77
2018-11-06T06:14:15.881Z,27.60
2018-11-06T06:16:44.538Z,27.87
2018-11-06T06:19:13.193Z,31.60
2018-11-06T06:21:41.858Z,29.73
2018-11-06T06:24:10.506Z,33.37
2018-11-06T06:26:39.173Z,34.87
2018-11-06T06:29:07.852Z,42.00
2018-11-06T06:31:36.456Z,39.87
2018-11-06T06:34:05.102Z,39.40
2018-11-06T06:36:33.756Z,34.40
2018-11-06T06:39:02.397Z,31.13
2018-11-06T06:41:31.096Z,32.87
2018-11-06T06:43:59.697Z,30.33
2018-11-06T06:46:28.391Z,30.47
2018-11-06T06:48:57.022Z,29.80
2018-11-06T06:51:25.636Z,32.73
2018-11-06T06:53:54.312Z,33.40
2018-11-06T06:56:26.029Z,32.33
2018-11-06T06:58:55.442Z,30.07
2018-11-06T07:01:24.052Z,29.53
2018-11-06T07:03:52.657Z,31.67
2018-11-06T07:06:21.334Z,30.97
2018-11-06T07:08:50.002Z,29.87
2018-11-06T07:11:18.732Z,28.73
2018-11-06T07:13:47.380Z,30.30
2018-11-06T07:16:16.070Z,31.53
2018-11-06T07:18:44.714Z,31.10
2018-11-06T07:21:13.333Z,29.43
2018-11-06T07:23:41.995Z,29.90
2018-11-06T07:26:10.611Z,28.07
2018-11-06T07:28:39.301Z,28.50
2018-11-06T07:31:07.973Z,28.40
2018-11-06T07:33:36.636Z,27.57
2018-11-06T07:36:05.302Z,27.37
2018-11-06T07:38:33.992Z,26.83
2018-11-06T07:41:02.755Z,28.47
2018-11-06T07:43:31.302Z,28.13
2018-11-06T07:45:59.984Z,29.47
2018-11-06T07:48:28.649Z,28.23
2018-11-06T07:50:57.302Z,27.10
2018-11-06T07:53:26.030Z,28.60
2018-11-06T07:55:54.820Z,29.67
2018-11-06T07:58:23.467Z,31.60
2018-11-06T08:00:52.183Z,28.70
2018-11-06T08:03:20.890Z,30.47
2018-11-06T08:05:49.859Z,29.40
2018-11-06T08:08:18.562Z,27.30
2018-11-06T08:10:47.242Z,28.97
2018-11-06T08:13:15.896Z,27.50
2018-11-06T08:15:44.626Z,25.70
2018-11-06T08:18:13.320Z,27.13
2018-11-06T08:20:42.069Z,28.03
2018-11-06T08:23:10.794Z,27.33
2018-11-06T08:25:39.449Z,29.43
2018-11-06T08:28:08.117Z,31.93
2018-11-06T08:30:36.799Z,31.00
2018-11-06T08:33:05.584Z,28.10
2018-11-06T08:35:34.249Z,29.60
2018-11-06T08:38:03.014Z,28.80
2018-11-06T08:40:31.728Z,27.93
2018-11-06T08:43:00.360Z,27.50
2018-11-06T08:45:29.043Z,27.03
2018-11-06T08:47:57.728Z,28.10
2018-11-06T08:50:26.347Z,28.33
2018-11-06T08:52:55.538Z,27.97
2018-11-06T08:55:24.245Z,27.93
2018-11-06T08:57:52.893Z,27.80
2018-11-06T09:00:21.535Z,29.77
2018-11-06T09:02:50.309Z,27.50
2018-11-06T09:05:19.558Z,29.03
2018-11-06T09:07:48.245Z,33.10
2018-11-06T09:10:17.346Z,25.90
2018-11-06T09:12:46.092Z,26.43
2018-11-06T09:15:15.652Z,27.07
2018-11-06T09:17:44.334Z,25.23
2018-11-06T09:20:14.174Z,27.00
2018-11-06T09:22:42.801Z,26.90
2018-11-06T09:25:13.687Z,25.93
2018-11-06T09:27:43.087Z,27.17
2018-11-06T09:30:14.112Z,27.33
2018-11-06T09:32:42.820Z,26.63
2018-11-06T09:35:12.411Z,27.20
2018-11-06T09:37:41.703Z,25.57
2018-11-06T09:40:12.781Z,24.97
2018-11-06T09:42:41.521Z,24.73
2018-11-06T09:45:10.953Z,26.10
2018-11-06T09:47:39.551Z,25.80
2018-11-06T09:50:11.837Z,27.20
2018-11-06T09:52:40.485Z,26.80
2018-11-06T09:55:09.137Z,25.93
2018-11-06T09:57:37.841Z,25.47
2018-11-06T10:00:12.316Z,26.80
2018-11-06T10:02:40.960Z,26.80
2018-11-06T10:05:10.396Z,25.73
2018-11-06T10:07:39.308Z,26.03
2018-11-06T10:10:10.661Z,23.45
2018-11-06T10:12:39.715Z,22.65
2018-11-06T10:15:10.363Z,24.12
2018-11-06T10:17:39.850Z,23.83
2018-11-06T10:20:09.430Z,24.70
2018-11-06T10:22:38.197Z,24.37
2018-11-06T10:25:07.332Z,24.55
2018-11-06T10:27:36.217Z,23.45
2018-11-06T10:30:11.004Z,24.40
2018-11-06T10:32:39.667Z,23.00
2018-11-06T10:35:09.064Z,22.42
2018-11-06T10:37:37.698Z,21.70
2018-11-06T10:40:09.628Z,20.50
2018-11-06T10:42:38.631Z,20.08
2018-11-06T10:45:08.067Z,18.90
2018-11-06T10:47:36.985Z,16.93
2018-11-06T10:50:06.320Z,53.02
2018-11-06T10:52:34.998Z,40.08
2018-11-06T10:55:04.017Z,41.13
2018-11-06T10:57:32.642Z,28.55
2018-11-06T11:00:01.305Z,26.15
2018-11-06T11:02:35.319Z,20.62
2018-11-06T11:05:04.035Z,21.00
2018-11-06T11:07:32.690Z,21.37
2018-11-06T11:10:01.358Z,21.00
2018-11-06T11:12:30.028Z,20.95
2018-11-06T11:14:58.697Z,20.60
2018-11-06T11:17:27.354Z,24.27
2018-11-06T11:19:56.056Z,22.10
2018-11-06T11:22:24.732Z,10.00
2018-11-06T11:24:53.374Z,10.60
2018-11-06T11:27:22.051Z,14.98
2018-11-06T11:29:50.782Z,14.85
2018-11-06T11:32:19.426Z,7.85
2018-11-06T11:34:48.414Z,13.10
2018-11-06T11:37:17.160Z,22.55
2018-11-06T11:39:45.866Z,26.05
2018-11-06T11:42:14.499Z,14.55
2018-11-06T11:44:43.133Z,11.93
2018-11-06T11:47:11.766Z,10.40
2018-11-06T11:49:40.417Z,7.70
2018-11-06T11:52:09.087Z,13.00
2018-11-06T11:54:38.637Z,8.67
2018-11-06T11:57:07.305Z,6.10
2018-11-06T11:59:35.952Z,7.07
2018-11-06T12:02:04.979Z,5.70
2018-11-06T12:04:33.600Z,5.70
2018-11-06T12:07:02.205Z,6.17
2018-11-06T12:09:30.855Z,6.33
2018-11-06T12:11:59.531Z,5.73
2018-11-06T12:14:28.136Z,6.70
2018-11-06T12:16:56.811Z,6.37
2018-11-06T12:19:25.452Z,5.80
2018-11-06T12:21:54.113Z,5.87
2018-11-06T12:24:22.828Z,5.73
2018-11-06T12:26:51.459Z,5.90
2018-11-06T12:29:20.121Z,6.30
2018-11-06T12:31:48.756Z,14.93
2018-11-06T12:34:17.413Z,8.60
2018-11-06T12:36:46.674Z,6.13
2018-11-06T12:39:15.342Z,7.07
2018-11-06T12:41:44.047Z,6.00
2018-11-06T12:44:12.689Z,6.20
2018-11-06T12:46:41.346Z,6.57
2018-11-06T12:49:10.005Z,6.40
2018-11-06T12:51:38.677Z,6.33
2018-11-06T12:54:07.460Z,7.10
2018-11-06T12:56:36.726Z,6.30
2018-11-06T12:59:05.510Z,7.93
2018-11-06T13:01:34.149Z,7.27
2018-11-06T13:04:02.845Z,8.63
2018-11-06T13:06:31.507Z,8.10
2018-11-06T13:09:00.173Z,9.20
2018-11-06T13:11:28.803Z,10.37
2018-11-06T13:13:57.544Z,9.30
2018-11-06T13:16:26.177Z,8.97
2018-11-06T13:18:54.894Z,9.70
2018-11-06T13:21:23.600Z,8.80
2018-11-06T13:23:52.221Z,9.97
2018-11-06T13:26:20.976Z,9.93
2018-11-06T13:28:49.497Z,9.30
2018-11-06T13:31:18.158Z,10.57
2018-11-06T13:33:46.855Z,9.70
2018-11-06T13:36:15.493Z,9.50
2018-11-06T13:38:44.104Z,8.40
2018-11-06T13:41:12.804Z,9.50
2018-11-06T13:43:41.695Z,9.03
2018-11-06T13:46:10.277Z,9.03
2018-11-06T13:48:38.930Z,9.77
2018-11-06T13:51:07.592Z,9.43
2018-11-06T13:53:36.220Z,9.50
2018-11-06T13:56:04.958Z,10.10
2018-11-06T13:58:33.604Z,10.00
2018-11-06T14:01:02.230Z,9.93
2018-11-06T14:03:30.889Z,9.30
2018-11-06T14:05:59.517Z,9.97
2018-11-06T14:08:28.285Z,10.97
2018-11-06T14:10:56.952Z,10.67
2018-11-06T14:13:25.552Z,10.10
2018-11-06T14:15:54.203Z,10.33
2018-11-06T14:18:23.174Z,9.73
2018-11-06T14:20:51.881Z,8.60
2018-11-06T14:23:20.511Z,9.63
2018-11-06T14:25:49.169Z,8.63
2018-11-06T14:28:18.083Z,9.00
2018-11-06T14:30:46.723Z,8.87
2018-11-06T14:33:15.390Z,10.07
2018-11-06T14:35:44.126Z,10.10
2018-11-06T14:38:12.750Z,10.43
2018-11-06T14:40:41.377Z,10.83
2018-11-06T14:43:10.029Z,10.10
2018-11-06T14:45:38.700Z,9.80
2018-11-06T14:48:07.498Z,10.47
2018-11-06T14:50:36.110Z,10.93
2018-11-06T14:53:05.035Z,11.53
2018-11-06T14:55:33.654Z,12.17
2018-11-06T14:58:02.349Z,11.90
2018-11-06T15:00:31.168Z,11.80
2018-11-06T15:02:59.780Z,11.97
2018-11-06T15:05:28.411Z,11.73
2018-11-06T15:07:57.035Z,12.07
2018-11-06T15:10:25.691Z,11.40
2018-11-06T15:12:54.333Z,11.40
2018-11-06T15:15:22.985Z,12.93
2018-11-06T15:17:51.642Z,13.00
2018-11-06T15:20:21.566Z,12.20
2018-11-06T15:22:50.239Z,13.03
2018-11-06T15:25:19.465Z,14.90
2018-11-06T15:27:48.142Z,16.20
2018-11-06T15:30:17.778Z,17.70
2018-11-06T15:32:46.392Z,18.13
2018-11-06T15:35:16.411Z,17.03
2018-11-06T15:37:45.166Z,20.20
2018-11-06T15:40:15.662Z,18.77
2018-11-06T15:42:44.458Z,21.77
2018-11-06T15:45:15.064Z,22.53
2018-11-06T15:47:44.461Z,23.73
2018-11-06T15:50:14.536Z,23.60
2018-11-06T15:52:43.912Z,24.73
2018-11-06T15:55:12.550Z,25.13
2018-11-06T15:57:41.176Z,26.40
2018-11-06T16:00:12.786Z,27.13
2018-11-06T16:02:41.711Z,23.60
2018-11-06T16:05:10.423Z,24.47
2018-11-06T16:07:39.420Z,26.63
2018-11-06T16:10:16.519Z,26.87
2018-11-06T16:12:45.716Z,21.50
2018-11-06T16:15:14.384Z,22.17
2018-11-06T16:17:43.482Z,23.50
2018-11-06T16:20:13.514Z,33.93
2018-11-06T16:22:42.366Z,30.13
2018-11-06T16:25:12.552Z,29.43
2018-11-06T16:27:41.618Z,23.93
2018-11-06T16:30:12.830Z,22.90
2018-11-06T16:32:41.519Z,20.87
2018-11-06T16:35:12.246Z,23.83
2018-11-06T16:37:41.293Z,25.77
2018-11-06T16:40:10.462Z,25.83
2018-11-06T16:42:39.601Z,25.70
2018-11-06T16:45:10.119Z,22.03
2018-11-06T16:47:38.758Z,21.30
2018-11-06T16:50:08.988Z,19.00
2018-11-06T16:52:37.624Z,16.97
2018-11-06T16:55:06.807Z,17.73
2018-11-06T16:57:35.460Z,15.63
2018-11-06T17:00:13.331Z,16.87
2018-11-06T17:02:42.449Z,16.77
2018-11-06T17:05:12.478Z,18.97
2018-11-06T17:07:41.407Z,20.03
2018-11-06T17:10:11.685Z,17.47
2018-11-06T17:12:40.436Z,18.80
2018-11-06T17:15:11.711Z,17.83
2018-11-06T17:17:40.353Z,16.90
2018-11-06T17:20:10.438Z,18.37
2018-11-06T17:22:39.240Z,18.47
2018-11-06T17:25:09.445Z,18.37
2018-11-06T17:27:38.301Z,17.57
2018-11-06T17:30:12.977Z,22.27
2018-11-06T17:32:41.959Z,20.53
2018-11-06T17:35:12.364Z,18.67
2018-11-06T17:37:41.389Z,18.67
2018-11-06T17:40:12.544Z,18.27
2018-11-06T17:42:41.612Z,18.27
2018-11-06T17:45:12.816Z,17.97
2018-11-06T17:47:41.968Z,18.13
2018-11-06T17:50:12.187Z,18.90
2018-11-06T17:52:40.876Z,18.03
2018-11-06T17:55:11.293Z,17.90
2018-11-06T17:57:40.248Z,17.03
2018-11-06T18:00:14.552Z,18.30
2018-11-06T18:02:43.383Z,17.97
2018-11-06T18:05:13.110Z,18.20
2018-11-06T18:07:42.371Z,17.83
2018-11-06T18:10:13.049Z,19.13
2018-11-06T18:12:41.765Z,17.80
2018-11-06T18:15:10.485Z,19.93
2018-11-06T18:17:39.952Z,21.50
2018-11-06T18:20:09.458Z,20.27
2018-11-06T18:22:38.203Z,19.80
2018-11-06T18:25:07.189Z,17.90
2018-11-06T18:27:35.858Z,19.50
2018-11-06T18:30:08.921Z,19.10
2018-11-06T18:32:37.790Z,18.30
2018-11-06T18:35:07.393Z,19.43
2018-11-06T18:37:36.106Z,21.07
2018-11-06T18:40:05.224Z,20.97
2018-11-06T18:42:33.849Z,23.27
2018-11-06T18:45:02.504Z,23.20
2018-11-06T18:47:31.246Z,24.10
2018-11-06T18:49:59.885Z,24.30
2018-11-06T18:52:28.536Z,25.80
2018-11-06T18:54:57.177Z,28.20
2018-11-06T18:57:25.866Z,26.30
2018-11-06T18:59:54.512Z,26.23
2018-11-06T19:02:23.140Z,26.37
2018-11-06T19:04:51.781Z,26.77
2018-11-06T19:07:20.391Z,26.47
2018-11-06T19:09:49.025Z,26.57
2018-11-06T19:12:17.646Z,26.00
2018-11-06T19:14:46.281Z,25.20
2018-11-06T19:17:14.933Z,25.00
2018-11-06T19:19:43.561Z,28.80
2018-11-06T19:22:12.204Z,26.50
2018-11-06T19:24:40.883Z,27.87
2018-11-06T19:27:09.489Z,27.63
2018-11-06T19:29:38.204Z,30.40
2018-11-06T19:32:07.032Z,29.17
2018-11-06T19:34:35.713Z,30.57
2018-11-06T19:37:04.409Z,30.20
2018-11-06T19:39:33.070Z,27.67
2018-11-06T19:42:01.785Z,29.27
2018-11-06T19:44:30.417Z,27.87
2018-11-06T19:46:59.085Z,27.00
2018-11-06T19:49:27.705Z,27.43
2018-11-06T19:51:56.312Z,26.33
2018-11-06T19:54:24.972Z,27.90
2018-11-06T19:56:53.644Z,27.33
2018-11-06T19:59:22.312Z,25.10
2018-11-06T20:01:50.972Z,27.20
2018-11-06T20:04:19.629Z,27.97
2018-11-06T20:06:48.589Z,25.77
2018-11-06T20:09:17.254Z,26.83
2018-11-06T20:11:45.980Z,27.07
2018-11-06T20:14:14.989Z,28.23
2018-11-06T20:16:43.625Z,25.90
2018-11-06T20:19:12.265Z,26.83
2018-11-06T20:21:40.935Z,28.03
2018-11-06T20:24:09.691Z,29.10
2018-11-06T20:26:38.833Z,27.03
2018-11-06T20:29:07.591Z,26.43
2018-11-06T20:31:36.283Z,25.93
2018-11-06T20:34:05.032Z,27.23
2018-11-06T20:36:33.633Z,25.83
2018-11-06T20:39:02.293Z,24.30
2018-11-06T20:41:30.955Z,24.03
2018-11-06T20:43:59.626Z,23.03
2018-11-06T20:46:28.371Z,22.50
2018-11-06T20:48:57.097Z,21.67
2018-11-06T20:51:25.755Z,20.23
2018-11-06T20:53:54.418Z,22.03
2018-11-06T20:56:23.039Z,21.17
2018-11-06T20:58:51.692Z,21.53
2018-11-06T21:01:20.523Z,23.83
2018-11-06T21:03:49.053Z,22.93
2018-11-06T21:06:17.741Z,20.87
2018-11-06T21:08:46.425Z,22.17
2018-11-06T21:11:15.141Z,22.63
2018-11-06T21:13:43.885Z,23.90
2018-11-06T21:16:12.583Z,25.17
2018-11-06T21:18:41.222Z,25.90
2018-11-06T21:21:09.882Z,23.83
2018-11-06T21:23:38.561Z,22.73
2018-11-06T21:26:07.385Z,22.87
2018-11-06T21:28:36.014Z,22.63
2018-11-06T21:31:04.709Z,19.63
2018-11-06T21:33:33.361Z,21.53
2018-11-06T21:36:02.026Z,21.10
2018-11-06T21:38:30.713Z,20.43
2018-11-06T21:40:59.384Z,20.70
2018-11-06T21:43:28.010Z,20.10
2018-11-06T21:45:56.690Z,20.33
2018-11-06T21:48:25.364Z,19.90
2018-11-06T21:50:54.039Z,18.67
2018-11-06T21:53:22.805Z,19.17
2018-11-06T21:55:51.469Z,18.80
2018-11-06T21:58:20.069Z,17.43
2018-11-06T22:00:48.863Z,18.37
2018-11-06T22:03:17.414Z,17.90
2018-11-06T22:05:46.086Z,16.23
2018-11-06T22:08:14.777Z,17.70
2018-11-06T22:10:43.492Z,16.83
2018-11-06T22:13:12.208Z,16.83
2018-11-06T22:15:40.902Z,16.43
2018-11-06T22:18:09.639Z,17.70
2018-11-06T22:20:38.372Z,16.97
2018-11-06T22:23:07.086Z,17.37
2018-11-06T22:25:35.726Z,16.07
2018-11-06T22:28:04.358Z,16.60
2018-11-06T22:30:32.978Z,16.67
2018-11-06T22:33:01.686Z,18.10
2018-11-06T22:35:30.334Z,17.83
2018-11-06T22:37:59.038Z,17.80
2018-11-06T22:40:27.711Z,17.27
2018-11-06T22:42:56.341Z,16.63
2018-11-06T22:45:24.987Z,18.20
2018-11-06T22:47:53.592Z,16.83
2018-11-06T22:50:22.257Z,18.43
2018-11-06T22:52:50.994Z,15.77
2018-11-06T22:55:19.609Z,16.87
2018-11-06T22:57:48.218Z,16.50
2018-11-06T23:00:23.509Z,17.53
2018-11-06T23:02:52.141Z,17.53
2018-11-06T23:05:20.778Z,16.63
2018-11-06T23:07:54.588Z,16.93
2018-11-06T23:10:23.275Z,16.70
2018-11-06T23:12:52.009Z,17.47
2018-11-06T23:15:20.642Z,18.00
2018-11-06T23:17:49.440Z,17.63
2018-11-06T23:20:18.058Z,18.20
2018-11-06T23:22:46.702Z,18.43
2018-11-06T23:25:15.374Z,17.77
2018-11-06T23:27:44.020Z,18.27
2018-11-06T23:30:14.322Z,18.30
2018-11-06T23:32:43.054Z,18.27
2018-11-06T23:35:11.695Z,18.37
2018-11-06T23:37:40.956Z,18.27
2018-11-06T23:40:10.334Z,17.77
2018-11-06T23:42:39.166Z,18.00
2018-11-06T23:45:08.465Z,16.93
2018-11-06T23:47:37.165Z,18.40
2018-11-06T23:50:06.350Z,18.37
2018-11-06T23:52:34.964Z,18.53
2018-11-06T23:55:03.658Z,18.10
2018-11-06T23:57:32.316Z,18.57
